createdAt,value
2019-03-26T00:00:50.904Z,2.50
2019-03-26T00:03:20.219Z,2.83
2019-03-26T00:05:50.338Z,2.20
2019-03-26T00:08:19.812Z,2.67
2019-03-26T00:10:49.424Z,2.80
2019-03-26T00:13:18.924Z,2.90
2019-03-26T00:15:48.902Z,2.30
2019-03-26T00:18:18.342Z,3.63
2019-03-26T00:20:48.332Z,3.50
2019-03-26T00:23:18.028Z,2.20
2019-03-26T00:25:48.050Z,3.10
2019-03-26T00:28:17.410Z,3.10
2019-03-26T00:30:47.133Z,3.17
2019-03-26T00:33:16.936Z,3.80
2019-03-26T00:35:46.253Z,2.77
2019-03-26T00:38:15.714Z,3.07
2019-03-26T00:40:45.314Z,2.83
2019-03-26T00:43:15.142Z,2.60
2019-03-26T00:45:44.586Z,2.77
2019-03-26T00:48:14.223Z,4.20
2019-03-26T00:50:43.566Z,3.57
2019-03-26T00:53:13.276Z,2.50
2019-03-26T00:55:42.662Z,2.70
2019-03-26T00:58:12.066Z,2.50
2019-03-26T01:00:44.796Z,3.43
2019-03-26T01:03:14.009Z,2.87
2019-03-26T01:05:44.255Z,2.47
2019-03-26T01:08:13.956Z,2.93
2019-03-26T01:10:43.780Z,2.70
2019-03-26T01:13:13.207Z,3.10
2019-03-26T01:15:43.036Z,3.33
2019-03-26T01:18:12.687Z,3.33
2019-03-26T01:20:42.102Z,2.00
2019-03-26T01:23:11.453Z,2.97
2019-03-26T01:25:40.904Z,2.80
2019-03-26T01:28:10.628Z,2.40
2019-03-26T01:30:39.946Z,2.17
2019-03-26T01:33:09.412Z,1.83
2019-03-26T01:35:38.852Z,3.00
2019-03-26T01:38:08.283Z,2.80
2019-03-26T01:40:37.749Z,1.97
2019-03-26T01:43:07.132Z,2.00
2019-03-26T01:45:36.500Z,2.30
2019-03-26T01:48:05.931Z,2.03
2019-03-26T01:50:35.345Z,2.33
2019-03-26T01:53:04.925Z,3.10
2019-03-26T01:55:34.592Z,2.10
2019-03-26T01:58:04.030Z,2.77
2019-03-26T02:00:33.304Z,2.67
2019-03-26T02:03:02.986Z,2.00
2019-03-26T02:05:32.883Z,2.83
2019-03-26T02:08:02.675Z,3.23
2019-03-26T02:10:32.161Z,1.70
2019-03-26T02:13:01.826Z,2.40
2019-03-26T02:15:32.091Z,2.10
2019-03-26T02:18:02.066Z,2.40
2019-03-26T02:20:31.585Z,2.53
2019-03-26T02:23:01.046Z,2.70
2019-03-26T02:25:30.616Z,2.13
2019-03-26T02:27:59.976Z,2.30
2019-03-26T02:30:29.849Z,2.70
2019-03-26T02:33:00.315Z,2.80
2019-03-26T02:35:29.806Z,2.27
2019-03-26T02:38:00.163Z,3.60
2019-03-26T02:40:30.612Z,3.30
2019-03-26T02:43:00.257Z,2.50
2019-03-26T02:45:29.867Z,3.07
2019-03-26T02:47:59.673Z,2.80
2019-03-26T02:50:29.081Z,2.40
2019-03-26T02:52:58.546Z,2.40
2019-03-26T02:55:28.083Z,2.50
2019-03-26T02:57:57.524Z,2.70
2019-03-26T03:00:27.301Z,3.00
2019-03-26T03:02:56.681Z,2.57
2019-03-26T03:05:34.928Z,2.40
2019-03-26T03:07:57.350Z,2.87
2019-03-26T03:10:26.734Z,2.47
2019-03-26T03:12:56.573Z,2.60
2019-03-26T03:15:26.053Z,2.60
2019-03-26T03:17:55.422Z,2.87
2019-03-26T03:20:24.771Z,3.43
2019-03-26T03:22:54.129Z,3.20
2019-03-26T03:25:23.602Z,2.30
2019-03-26T03:27:52.999Z,2.87
2019-03-26T03:30:22.677Z,2.80
2019-03-26T03:32:51.997Z,2.70
2019-03-26T03:35:21.347Z,2.00
2019-03-26T03:37:50.878Z,2.63
2019-03-26T03:40:20.784Z,2.10
2019-03-26T03:42:50.803Z,2.47
2019-03-26T03:45:27.972Z,3.00
2019-03-26T03:47:57.913Z,3.00
2019-03-26T03:50:27.493Z,2.20
2019-03-26T03:52:58.340Z,2.43
2019-03-26T03:55:28.056Z,2.07
2019-03-26T03:57:59.388Z,2.37
2019-03-26T04:00:35.439Z,2.60
2019-03-26T04:03:05.347Z,2.70
2019-03-26T04:05:34.774Z,2.03
2019-03-26T04:08:04.804Z,2.40
2019-03-26T04:10:34.812Z,2.40
2019-03-26T04:13:04.812Z,2.63
2019-03-26T04:18:23.257Z,3.40
2019-03-26T04:20:52.670Z,2.47
2019-03-26T04:23:22.719Z,2.13
2019-03-26T04:25:52.195Z,3.10
2019-03-26T04:28:21.834Z,2.07
2019-03-26T04:30:51.271Z,2.20
2019-03-26T04:33:21.054Z,2.70
2019-03-26T04:35:50.374Z,2.13
2019-03-26T04:38:19.751Z,2.77
2019-03-26T04:40:49.452Z,1.60
2019-03-26T04:43:19.237Z,2.77
2019-03-26T04:45:48.635Z,2.60
2019-03-26T04:48:18.375Z,2.50
2019-03-26T04:50:47.691Z,1.73
2019-03-26T04:53:17.177Z,2.40
2019-03-26T04:55:46.505Z,2.57
2019-03-26T04:58:15.884Z,2.43
2019-03-26T05:00:45.591Z,2.60
2019-03-26T05:03:14.992Z,2.30
2019-03-26T05:05:44.362Z,2.20
2019-03-26T05:08:14.038Z,2.27
2019-03-26T05:10:43.819Z,3.30
2019-03-26T05:13:13.418Z,3.47
2019-03-26T05:15:42.818Z,2.50
2019-03-26T05:18:12.529Z,3.20
2019-03-26T05:20:42.526Z,3.30
2019-03-26T05:23:12.141Z,2.90
2019-03-26T05:25:41.936Z,3.43
2019-03-26T05:28:11.269Z,3.20
2019-03-26T05:30:40.664Z,3.60
2019-03-26T05:33:10.455Z,3.00
2019-03-26T05:35:39.971Z,2.40
2019-03-26T05:38:09.447Z,3.10
2019-03-26T05:40:38.959Z,2.77
2019-03-26T05:43:08.627Z,3.00
2019-03-26T05:45:38.386Z,3.20
2019-03-26T05:48:08.078Z,2.77
2019-03-26T05:50:37.481Z,3.73
2019-03-26T05:53:06.808Z,3.30
2019-03-26T05:55:36.130Z,3.17
2019-03-26T05:58:05.497Z,2.80
2019-03-26T06:00:34.849Z,2.50
2019-03-26T06:03:04.223Z,2.60
2019-03-26T06:05:33.674Z,2.47
2019-03-26T06:08:03.218Z,3.23
2019-03-26T06:10:32.913Z,3.00
2019-03-26T06:13:02.618Z,2.97
2019-03-26T06:15:32.449Z,2.80
2019-03-26T06:18:02.634Z,3.30
2019-03-26T06:20:32.255Z,2.60
2019-03-26T06:23:01.882Z,2.80
2019-03-26T06:25:31.441Z,3.70
2019-03-26T06:28:01.165Z,2.50
2019-03-26T06:30:30.701Z,3.23
2019-03-26T06:33:00.499Z,4.30
2019-03-26T06:35:29.974Z,3.10
2019-03-26T06:37:59.413Z,2.37
2019-03-26T06:40:28.904Z,3.33
2019-03-26T06:42:58.963Z,3.73
2019-03-26T06:45:28.645Z,2.50
2019-03-26T06:47:58.443Z,2.33
2019-03-26T06:50:28.079Z,2.77
2019-03-26T06:52:57.467Z,2.90
2019-03-26T06:55:27.338Z,2.17
2019-03-26T06:57:56.679Z,3.37
2019-03-26T07:00:33.099Z,3.57
2019-03-26T07:03:03.141Z,3.13
2019-03-26T07:05:32.707Z,2.60
2019-03-26T07:08:02.348Z,3.60
2019-03-26T07:10:32.486Z,3.10
2019-03-26T07:13:01.893Z,2.40
2019-03-26T07:15:31.715Z,2.53
2019-03-26T07:18:01.092Z,4.23
2019-03-26T07:20:30.452Z,3.50
2019-03-26T07:23:00.326Z,3.33
2019-03-26T07:25:30.346Z,2.83
2019-03-26T07:28:00.331Z,3.00
2019-03-26T07:30:39.502Z,3.63
2019-03-26T07:33:09.085Z,3.47
2019-03-26T07:35:38.671Z,4.17
2019-03-26T07:38:08.292Z,3.10
2019-03-26T07:40:37.879Z,4.40
2019-03-26T07:43:07.331Z,4.17
2019-03-26T07:45:36.717Z,3.23
2019-03-26T07:48:06.536Z,3.33
2019-03-26T07:50:36.193Z,3.27
2019-03-26T07:53:05.710Z,3.60
2019-03-26T07:55:35.550Z,3.20
2019-03-26T07:58:05.122Z,3.40
2019-03-26T08:00:35.268Z,3.17
2019-03-26T08:03:04.730Z,3.00
2019-03-26T08:05:34.069Z,3.27
2019-03-26T08:08:03.741Z,2.67
2019-03-26T08:10:33.207Z,2.50
2019-03-26T08:13:03.012Z,3.30
2019-03-26T08:15:32.709Z,3.10
2019-03-26T08:18:02.282Z,3.40
2019-03-26T08:20:31.615Z,4.50
2019-03-26T08:23:01.290Z,3.83
2019-03-26T08:25:33.743Z,3.97
2019-03-26T08:28:04.869Z,3.20
2019-03-26T08:30:33.050Z,3.30
2019-03-26T08:33:02.430Z,3.23
2019-03-26T08:35:31.898Z,3.60
2019-03-26T08:38:11.849Z,3.30
2019-03-26T08:50:25.775Z,2.80
2019-03-26T08:55:23.519Z,3.63
2019-03-26T08:57:52.905Z,3.40
2019-03-26T09:00:22.446Z,3.00
2019-03-26T09:02:51.905Z,3.70
2019-03-26T09:05:21.411Z,3.50
2019-03-26T09:07:50.840Z,4.00
2019-03-26T09:10:20.711Z,2.90
2019-03-26T09:17:46.505Z,2.30
2019-03-26T09:20:16.018Z,3.30
2019-03-26T09:22:45.444Z,3.10
2019-03-26T09:25:16.390Z,2.80
2019-03-26T09:27:46.977Z,3.10
2019-03-26T09:30:17.991Z,2.83
2019-03-26T09:32:48.459Z,3.33
2019-03-26T09:35:19.580Z,3.40
2019-03-26T09:37:50.095Z,3.43
2019-03-26T09:40:20.584Z,3.23
2019-03-26T09:42:51.085Z,3.27
2019-03-26T09:45:21.776Z,3.00
2019-03-26T09:47:52.481Z,3.43
2019-03-26T09:50:33.325Z,2.87
2019-03-26T09:53:03.727Z,3.23
2019-03-26T09:55:34.042Z,3.83
2019-03-26T09:58:04.752Z,3.80
2019-03-26T10:00:35.151Z,3.27
2019-03-26T10:03:05.521Z,4.77
2019-03-26T10:05:35.879Z,4.10
2019-03-26T10:08:06.383Z,4.03
2019-03-26T10:10:36.806Z,4.93
2019-03-26T10:13:07.312Z,3.40
2019-03-26T10:15:37.825Z,2.90
2019-03-26T10:18:08.668Z,3.03
2019-03-26T10:20:39.571Z,2.80
2019-03-26T10:23:10.730Z,2.67
2019-03-26T10:25:41.231Z,2.70
2019-03-26T10:28:11.764Z,3.23
2019-03-26T10:30:42.651Z,2.23
2019-03-26T10:33:13.070Z,2.80
2019-03-26T10:35:43.980Z,2.90
2019-03-26T10:38:14.960Z,3.50
2019-03-26T10:40:45.576Z,2.60
2019-03-26T10:43:16.857Z,2.63
2019-03-26T10:45:47.690Z,3.80
2019-03-26T10:48:18.153Z,2.77
2019-03-26T10:50:48.598Z,2.93
2019-03-26T10:53:19.396Z,2.27
2019-03-26T10:55:49.905Z,3.30
2019-03-26T10:58:21.076Z,3.27
2019-03-26T11:00:51.975Z,2.57
2019-03-26T11:03:22.491Z,2.90
2019-03-26T11:05:52.841Z,2.70
2019-03-26T11:08:23.457Z,4.00
2019-03-26T11:10:54.308Z,2.93
2019-03-26T11:13:25.077Z,2.70
2019-03-26T11:16:01.588Z,2.50
2019-03-26T11:18:32.049Z,3.00
2019-03-26T12:03:23.209Z,2.50
2019-03-26T12:05:53.772Z,2.97
2019-03-26T12:08:24.577Z,2.73
2019-03-26T12:10:55.100Z,2.90
2019-03-26T12:13:25.784Z,2.57
2019-03-26T12:15:56.444Z,3.00
2019-03-26T12:18:26.839Z,3.50
2019-03-26T12:20:57.102Z,3.93
2019-03-26T12:23:28.067Z,3.07
2019-03-26T12:25:58.535Z,3.10
2019-03-26T12:28:28.958Z,2.73
2019-03-26T12:30:59.305Z,3.20
2019-03-26T12:33:29.730Z,3.27
2019-03-26T12:36:00.555Z,3.17
2019-03-26T12:38:31.246Z,2.80
2019-03-26T12:41:01.749Z,3.50
2019-03-26T12:43:32.246Z,3.17
2019-03-26T12:46:02.769Z,2.80
2019-03-26T12:48:33.340Z,3.27
2019-03-26T12:51:03.937Z,3.00
2019-03-26T12:53:34.344Z,3.20
2019-03-26T12:56:05.064Z,2.67
2019-03-26T12:58:36.625Z,2.90
2019-03-26T13:01:07.764Z,3.53
2019-03-26T13:03:38.323Z,4.03
2019-03-26T13:06:09.056Z,2.43
2019-03-26T13:08:39.433Z,2.53
2019-03-26T13:11:09.897Z,2.73
2019-03-26T13:13:40.358Z,3.03
2019-03-26T13:16:10.994Z,2.10
2019-03-26T13:18:41.499Z,2.10
2019-03-26T13:21:12.165Z,2.43
2019-03-26T13:23:43.424Z,2.70
2019-03-26T13:26:14.115Z,3.00
2019-03-26T13:28:45.023Z,2.70
2019-03-26T13:31:15.508Z,2.57
2019-03-26T13:33:45.876Z,2.40
2019-03-26T13:36:16.614Z,3.37
2019-03-26T13:38:46.822Z,2.87
2019-03-26T13:41:17.236Z,2.77
2019-03-26T13:43:47.860Z,3.13
2019-03-26T13:46:18.213Z,3.57
2019-03-26T13:48:48.699Z,3.53
2019-03-26T13:51:19.464Z,3.63
2019-03-26T13:53:50.279Z,3.87
2019-03-26T13:56:20.755Z,3.03
2019-03-26T13:58:51.566Z,3.40
2019-03-26T14:01:22.104Z,4.00
2019-03-26T14:03:52.883Z,3.50
2019-03-26T14:06:23.148Z,3.60
2019-03-26T14:08:53.670Z,3.50
2019-03-26T14:11:24.104Z,3.40
2019-03-26T14:13:54.502Z,4.20
2019-03-26T14:16:24.700Z,3.63
2019-03-26T14:18:55.257Z,3.73
2019-03-26T14:21:25.515Z,4.73
2019-03-26T14:23:55.906Z,4.10
2019-03-26T14:26:27.761Z,3.50
2019-03-26T14:28:58.888Z,4.00
2019-03-26T14:31:29.668Z,3.80
2019-03-26T14:34:00.368Z,3.70
2019-03-26T14:36:30.975Z,3.80
2019-03-26T14:39:01.180Z,3.77
2019-03-26T14:41:31.622Z,4.13
2019-03-26T14:44:02.316Z,3.63
2019-03-26T14:46:32.626Z,4.13
2019-03-26T14:49:03.169Z,4.63
2019-03-26T14:51:35.094Z,4.17
2019-03-26T14:54:06.014Z,4.20
2019-03-26T14:56:36.658Z,3.93
2019-03-26T14:59:07.237Z,4.80
2019-03-26T15:01:37.823Z,4.27
2019-03-26T15:04:08.352Z,4.50
2019-03-26T15:06:38.788Z,4.13
2019-03-26T15:09:10.116Z,3.40
2019-03-26T15:11:40.557Z,3.80
2019-03-26T15:14:11.116Z,3.43
2019-03-26T15:16:41.541Z,3.67
2019-03-26T15:19:11.970Z,3.13
2019-03-26T15:21:42.234Z,3.60
2019-03-26T15:24:12.695Z,4.13
2019-03-26T15:26:43.237Z,3.13
2019-03-26T15:29:13.539Z,2.70
2019-03-26T15:31:44.856Z,3.00
2019-03-26T15:34:15.042Z,3.70
2019-03-26T15:36:45.750Z,3.17
2019-03-26T15:39:16.278Z,3.30
2019-03-26T15:41:46.812Z,3.50
2019-03-26T15:44:17.121Z,4.10
2019-03-26T15:46:47.568Z,3.50
2019-03-26T15:49:18.186Z,4.10
2019-03-26T15:51:48.888Z,4.03
2019-03-26T15:54:20.153Z,3.10
2019-03-26T15:56:50.714Z,4.47
2019-03-26T15:59:21.417Z,3.00
2019-03-26T16:01:53.127Z,3.97
2019-03-26T16:04:24.053Z,3.20
2019-03-26T16:06:54.445Z,3.40
2019-03-26T16:09:25.697Z,3.50
2019-03-26T16:11:56.452Z,3.50
2019-03-26T16:14:28.257Z,3.80
2019-03-26T16:16:58.675Z,3.03
2019-03-26T16:19:32.714Z,3.53
2019-03-26T16:22:01.549Z,3.80
2019-03-26T16:24:32.432Z,3.60
2019-03-26T16:27:03.470Z,3.03
2019-03-26T16:29:34.590Z,3.10
2019-03-26T16:32:05.308Z,3.10
2019-03-26T16:34:35.762Z,3.00
2019-03-26T16:37:06.584Z,2.60
2019-03-26T16:39:38.393Z,3.70
2019-03-26T16:42:09.411Z,3.27
2019-03-26T16:44:40.132Z,3.00
2019-03-26T16:47:10.535Z,3.23
2019-03-26T16:49:41.012Z,3.50
2019-03-26T16:52:11.396Z,3.33
2019-03-26T16:54:42.169Z,2.90
2019-03-26T16:57:13.274Z,3.60
2019-03-26T16:59:43.931Z,3.27
2019-03-26T17:02:14.320Z,3.57
2019-03-26T17:04:46.791Z,3.00
2019-03-26T17:07:17.957Z,3.43
2019-03-26T17:09:48.704Z,3.20
2019-03-26T17:12:19.037Z,3.70
2019-03-26T17:14:49.377Z,4.13
2019-03-26T17:17:20.056Z,2.90
2019-03-26T17:19:50.712Z,4.30
2019-03-26T17:22:21.540Z,3.90
2019-03-26T17:24:52.920Z,3.60
2019-03-26T17:27:23.517Z,3.43
2019-03-26T17:29:54.591Z,3.33
2019-03-26T17:32:25.100Z,3.50
2019-03-26T17:34:55.563Z,3.60
2019-03-26T17:37:25.912Z,3.27
2019-03-26T17:39:56.963Z,3.37
2019-03-26T17:42:27.706Z,3.33
2019-03-26T17:44:58.495Z,3.43
2019-03-26T17:47:29.039Z,2.80
2019-03-26T17:49:59.482Z,2.90
2019-03-26T17:52:30.047Z,3.57
2019-03-26T17:55:00.592Z,3.63
2019-03-26T17:57:31.261Z,3.40
2019-03-26T18:00:02.026Z,3.67
2019-03-26T18:02:32.555Z,3.83
2019-03-26T18:05:03.079Z,3.17
2019-03-26T18:07:33.487Z,3.73
2019-03-26T18:10:03.926Z,2.60
2019-03-26T18:12:34.975Z,2.77
2019-03-26T18:15:06.430Z,3.43
2019-03-26T18:17:36.618Z,3.80
2019-03-26T18:20:07.383Z,3.67
2019-03-26T18:22:37.811Z,3.80
2019-03-26T18:25:08.374Z,4.07
2019-03-26T18:27:38.788Z,4.20
2019-03-26T18:30:09.439Z,3.30
2019-03-26T18:32:40.255Z,3.70
2019-03-26T18:35:10.777Z,3.73
2019-03-26T18:37:41.542Z,4.20
2019-03-26T18:40:12.137Z,3.80
2019-03-26T18:42:44.261Z,3.90
2019-03-26T18:45:15.205Z,4.17
2019-03-26T18:47:45.536Z,3.83
2019-03-26T18:50:16.685Z,4.93
2019-03-26T18:52:47.115Z,5.57
2019-03-26T18:55:17.667Z,4.77
2019-03-26T18:57:48.254Z,5.33
2019-03-26T19:00:29.749Z,4.87
2019-03-26T19:02:59.203Z,4.80
2019-03-26T19:05:29.523Z,4.50
2019-03-26T19:08:00.012Z,5.13
2019-03-26T19:10:31.661Z,4.20
2019-03-26T19:13:03.246Z,4.77
2019-03-26T19:15:33.634Z,4.63
2019-03-26T19:18:04.146Z,4.73
2019-03-26T19:20:34.603Z,4.90
2019-03-26T19:23:05.125Z,5.43
2019-03-26T19:25:35.523Z,4.73
2019-03-26T19:28:06.082Z,3.87
2019-03-26T19:30:36.514Z,5.30
2019-03-26T19:33:07.342Z,4.80
2019-03-26T19:35:37.566Z,4.77
2019-03-26T19:38:08.088Z,5.07
2019-03-26T19:40:38.798Z,4.77
2019-03-26T19:43:11.563Z,5.20
2019-03-26T19:45:42.772Z,6.13
2019-03-26T19:48:13.140Z,5.50
2019-03-26T19:50:43.554Z,5.67
2019-03-26T19:53:14.034Z,5.77
2019-03-26T19:55:44.653Z,6.40
2019-03-26T19:58:15.015Z,5.60
2019-03-26T20:00:45.906Z,5.77
2019-03-26T20:03:16.956Z,6.10
2019-03-26T20:05:47.972Z,7.20
2019-03-26T20:08:18.854Z,6.03
2019-03-26T20:10:49.371Z,7.10
2019-03-26T20:13:24.573Z,6.97
2019-03-26T20:15:52.220Z,6.47
2019-03-26T20:18:22.692Z,6.73
2019-03-26T20:20:53.493Z,7.17
2019-03-26T20:23:24.555Z,6.97
2019-03-26T20:25:55.330Z,7.63
2019-03-26T20:28:26.873Z,8.17
2019-03-26T20:30:57.321Z,7.20
2019-03-26T20:33:27.987Z,7.23
2019-03-26T20:35:58.394Z,7.43
2019-03-26T20:38:29.258Z,6.97
2019-03-26T20:41:00.506Z,7.97
2019-03-26T20:43:37.254Z,7.87
2019-03-26T20:46:02.971Z,7.70
2019-03-26T20:48:33.377Z,6.27
2019-03-26T20:51:03.811Z,8.50
2019-03-26T20:53:34.159Z,8.43
2019-03-26T20:56:04.532Z,7.60
2019-03-26T20:58:35.944Z,9.30
2019-03-26T21:01:06.838Z,6.47
2019-03-26T21:03:37.474Z,6.97
2019-03-26T21:06:08.036Z,7.60
2019-03-26T21:08:38.986Z,6.53
2019-03-26T21:11:09.469Z,6.43
2019-03-26T21:13:50.284Z,6.27
2019-03-26T21:16:12.265Z,7.90
2019-03-26T21:18:43.411Z,6.77
2019-03-26T21:21:14.367Z,8.03
2019-03-26T21:23:45.328Z,8.83
2019-03-26T21:26:16.105Z,7.50
2019-03-26T21:28:46.832Z,8.90
2019-03-26T21:31:17.297Z,8.47
2019-03-26T21:33:48.204Z,7.73
2019-03-26T21:36:20.702Z,7.20
2019-03-26T21:38:51.142Z,8.03
2019-03-26T21:41:21.466Z,7.83
2019-03-26T21:44:03.667Z,7.50
2019-03-26T21:46:24.226Z,8.57
2019-03-26T21:48:54.879Z,10.10
2019-03-26T21:51:25.277Z,10.43
2019-03-26T21:53:55.851Z,12.93
2019-03-26T21:56:26.232Z,11.53
2019-03-26T21:58:56.796Z,13.03
2019-03-26T22:01:27.784Z,10.50
2019-03-26T22:03:58.177Z,10.53
2019-03-26T22:06:28.526Z,9.00
2019-03-26T22:08:59.280Z,10.23
2019-03-26T22:11:29.711Z,8.83
2019-03-26T22:14:00.406Z,9.97
2019-03-26T22:16:30.778Z,9.10
2019-03-26T22:19:01.119Z,9.13
2019-03-26T22:21:31.514Z,8.90
2019-03-26T22:24:02.193Z,10.37
2019-03-26T22:26:32.525Z,9.57
2019-03-26T22:29:03.309Z,9.30
2019-03-26T22:31:33.753Z,8.50
2019-03-26T22:34:04.171Z,9.77
2019-03-26T22:36:34.984Z,9.87
2019-03-26T22:39:06.990Z,8.53
2019-03-26T22:41:37.207Z,9.03
2019-03-26T22:44:07.626Z,10.30
2019-03-26T22:46:38.454Z,8.27
2019-03-26T22:49:08.977Z,9.97
2019-03-26T22:51:39.306Z,9.37
2019-03-26T22:54:09.534Z,9.30
2019-03-26T22:56:39.860Z,11.23
2019-03-26T22:59:10.254Z,9.07
2019-03-26T23:01:40.978Z,10.40
2019-03-26T23:04:11.671Z,9.40
2019-03-26T23:06:42.076Z,9.80
2019-03-26T23:09:12.688Z,9.70
2019-03-26T23:11:43.288Z,9.90
2019-03-26T23:14:14.150Z,9.50
2019-03-26T23:16:44.735Z,9.73
2019-03-26T23:19:15.082Z,10.27
2019-03-26T23:21:45.586Z,9.73
2019-03-26T23:24:16.257Z,11.87
2019-03-26T23:26:46.513Z,10.23
2019-03-26T23:29:17.127Z,10.47
2019-03-26T23:31:48.368Z,10.50
2019-03-26T23:34:19.133Z,10.43
2019-03-26T23:36:50.161Z,11.33
2019-03-26T23:39:21.131Z,10.47
2019-03-26T23:41:51.843Z,12.10
2019-03-26T23:44:26.154Z,9.60
2019-03-26T23:46:54.502Z,9.57
2019-03-26T23:49:25.325Z,9.57
2019-03-26T23:51:55.662Z,10.87
2019-03-26T23:54:26.269Z,9.57
2019-03-26T23:56:57.079Z,10.53
2019-03-26T23:59:27.305Z,10.57
